Time;durP1;ratioP1;P1;durP2;ratioP2;P2;SDS_P1;SDS_P2;PMS_P1;PMS_P2;Temp;Humidity;BMP_temperature;BMP_pressure;BME280_temperature;BME280_humidity;BME280_pressure;Samples;Min_cycle;Max_cycle;Signal;HPM_P1;HPM_P2
2021/09/23 00:00:07;;;;;;;7.73;5.80;;;;;;;;;;5128742;27;24421;-61
2021/09/23 00:05:14;;;;;;;5.72;5.15;;;;;;;;;;5128187;27;24424;-61
2021/09/23 00:07:40;;;;;;;8.02;5.70;;;;;;;;;;5123340;27;24449;-62
2021/09/23 00:10:05;;;;;;;6.30;5.60;;;;;;;;;;5127791;27;24416;-62
2021/09/23 00:12:30;;;;;;;6.90;5.93;;;;;;;;;;5129257;27;24423;-62
2021/09/23 00:14:56;;;;;;;7.30;5.70;;;;;;;;;;5122226;27;25022;-62
2021/09/23 00:17:21;;;;;;;6.93;5.88;;;;;;;;;;5116276;27;24465;-62
2021/09/23 00:19:46;;;;;;;6.40;5.43;;;;;;;;;;5124557;27;24429;-62
2021/09/23 00:22:11;;;;;;;6.73;5.60;;;;;;;;;;5128017;27;24519;-62
2021/09/23 00:24:36;;;;;;;8.20;5.70;;;;;;;;;;5128848;27;24428;-62
2021/09/23 00:27:02;;;;;;;7.70;6.10;;;;;;;;;;5128612;27;25209;-62
2021/09/23 00:29:27;;;;;;;9.57;5.93;;;;;;;;;;5128062;27;24408;-62
2021/09/23 00:31:52;;;;;;;6.83;5.50;;;;;;;;;;5128000;27;25175;-62
2021/09/23 00:34:18;;;;;;;7.55;5.80;;;;;;;;;;5127730;27;25002;-62
2021/09/23 00:36:43;;;;;;;7.25;5.70;;;;;;;;;;5128764;27;25067;-62
2021/09/23 00:39:08;;;;;;;8.18;5.65;;;;;;;;;;5128104;27;24417;-62
2021/09/23 00:41:33;;;;;;;6.40;5.80;;;;;;;;;;5127633;27;24416;-62
2021/09/23 00:44:11;;;;;;;6.53;5.93;;;;;;;;;;5121063;27;24499;-62
2021/09/23 00:46:36;;;;;;;6.00;5.50;;;;;;;;;;5125437;27;24432;-62
2021/09/23 00:49:01;;;;;;;8.55;5.80;;;;;;;;;;5127112;27;24413;-62
2021/09/23 00:51:26;;;;;;;6.90;5.80;;;;;;;;;;5126581;27;24490;-61
2021/09/23 00:53:51;;;;;;;7.15;6.00;;;;;;;;;;5127609;27;25009;-62
2021/09/23 00:56:17;;;;;;;7.18;6.40;;;;;;;;;;5127514;27;24428;-62
2021/09/23 00:58:42;;;;;;;7.10;5.90;;;;;;;;;;5128127;27;24437;-61
2021/09/23 01:01:07;;;;;;;7.47;6.43;;;;;;;;;;5127227;27;25278;-61
2021/09/23 01:03:32;;;;;;;6.97;6.28;;;;;;;;;;5127189;27;24505;-62
2021/09/23 01:05:57;;;;;;;10.47;6.80;;;;;;;;;;5127543;27;24592;-62
2021/09/23 01:08:22;;;;;;;7.00;6.27;;;;;;;;;;5127950;27;24528;-62
2021/09/23 01:10:47;;;;;;;6.93;6.25;;;;;;;;;;5127629;27;24405;-73
2021/09/23 01:13:13;;;;;;;7.50;6.70;;;;;;;;;;5127098;27;24504;-61
2021/09/23 01:15:38;;;;;;;8.60;6.60;;;;;;;;;;5126929;27;24470;-61
2021/09/23 01:18:03;;;;;;;7.43;6.30;;;;;;;;;;5127343;27;24417;-61
2021/09/23 01:20:28;;;;;;;8.20;6.57;;;;;;;;;;5127356;27;25014;-60
2021/09/23 01:22:53;;;;;;;7.77;6.70;;;;;;;;;;5127444;27;24404;-60
2021/09/23 01:25:19;;;;;;;7.15;6.13;;;;;;;;;;5115220;27;24482;-60
2021/09/23 01:27:45;;;;;;;6.40;5.72;;;;;;;;;;5126798;27;24496;-60
2021/09/23 01:30:11;;;;;;;7.05;6.35;;;;;;;;;;5126903;27;24401;-60
2021/09/23 01:32:36;;;;;;;7.18;6.45;;;;;;;;;;5126659;27;24741;-60
2021/09/23 01:35:02;;;;;;;6.68;6.07;;;;;;;;;;5127198;27;24496;-60
2021/09/23 01:37:27;;;;;;;7.20;6.50;;;;;;;;;;5127231;27;24417;-60
2021/09/23 01:39:52;;;;;;;9.35;6.75;;;;;;;;;;5127251;27;24418;-60
2021/09/23 01:42:18;;;;;;;7.78;6.13;;;;;;;;;;5126949;27;24520;-60
2021/09/23 01:44:43;;;;;;;7.82;6.28;;;;;;;;;;5126968;27;24963;-61
2021/09/23 01:47:08;;;;;;;6.50;5.90;;;;;;;;;;5127083;27;24434;-61
2021/09/23 01:49:33;;;;;;;6.28;5.63;;;;;;;;;;5092054;28;24516;-61
2021/09/23 01:51:59;;;;;;;6.63;6.03;;;;;;;;;;5123740;27;24413;-61
2021/09/23 01:54:24;;;;;;;7.00;6.30;;;;;;;;;;5121546;27;24402;-60
2021/09/23 01:56:53;;;;;;;7.10;6.03;;;;;;;;;;5125750;27;24499;-61
2021/09/23 01:59:19;;;;;;;7.20;6.10;;;;;;;;;;5113988;27;24558;-61
2021/09/23 02:01:44;;;;;;;6.45;5.65;;;;;;;;;;5117385;28;24504;-60
2021/09/23 02:04:09;;;;;;;8.10;6.50;;;;;;;;;;5127309;28;25026;-62
2021/09/23 02:06:34;;;;;;;6.82;5.78;;;;;;;;;;5126230;28;24477;-62
2021/09/23 02:08:59;;;;;;;6.38;5.85;;;;;;;;;;5126838;28;24437;-62
2021/09/23 02:11:24;;;;;;;5.90;5.40;;;;;;;;;;5127342;28;24409;-62
2021/09/23 02:13:50;;;;;;;5.60;5.10;;;;;;;;;;5127009;28;24500;-61
2021/09/23 02:16:15;;;;;;;6.97;5.63;;;;;;;;;;5125861;28;24960;-61
2021/09/23 02:18:40;;;;;;;6.65;6.03;;;;;;;;;;5125926;28;24535;-62
2021/09/23 02:21:06;;;;;;;6.00;5.40;;;;;;;;;;5099015;28;25101;-61
2021/09/23 02:23:31;;;;;;;5.70;5.20;;;;;;;;;;5123634;28;24818;-61
2021/09/23 02:25:56;;;;;;;6.63;5.73;;;;;;;;;;5120317;27;24410;-62
2021/09/23 02:28:21;;;;;;;7.23;6.50;;;;;;;;;;5111770;28;24425;-61
2021/09/23 02:30:47;;;;;;;5.80;5.20;;;;;;;;;;5123605;28;24466;-62
2021/09/23 02:33:12;;;;;;;7.00;6.30;;;;;;;;;;5127742;27;24409;-61
2021/09/23 02:35:37;;;;;;;6.13;5.50;;;;;;;;;;5127921;27;24975;-61
2021/09/23 02:38:02;;;;;;;5.67;5.17;;;;;;;;;;5129915;27;24473;-61
2021/09/23 02:40:27;;;;;;;6.23;5.60;;;;;;;;;;5130387;27;24511;-62
2021/09/23 02:42:52;;;;;;;6.20;5.68;;;;;;;;;;5128415;27;24462;-62
2021/09/23 02:45:17;;;;;;;6.47;5.88;;;;;;;;;;5123816;27;24568;-61
2021/09/23 02:47:43;;;;;;;6.18;5.57;;;;;;;;;;5117802;27;24436;-61
2021/09/23 02:50:08;;;;;;;5.23;4.67;;;;;;;;;;5130184;27;24393;-62
2021/09/23 02:52:34;;;;;;;5.83;5.33;;;;;;;;;;5118185;27;24489;-62
2021/09/23 02:54:59;;;;;;;5.95;5.45;;;;;;;;;;5130818;27;24757;-62
2021/09/23 02:57:24;;;;;;;6.28;5.68;;;;;;;;;;5130459;27;24413;-62
2021/09/23 02:59:49;;;;;;;6.60;6.00;;;;;;;;;;5127447;27;24425;-62
2021/09/23 03:02:14;;;;;;;5.67;5.07;;;;;;;;;;5124659;27;24557;-62
2021/09/23 03:04:40;;;;;;;5.95;5.00;;;;;;;;;;5120441;27;24435;-61
2021/09/23 03:07:05;;;;;;;7.33;6.60;;;;;;;;;;5127471;27;24436;-61
2021/09/23 03:09:30;;;;;;;6.90;6.20;;;;;;;;;;5130241;27;24512;-62
2021/09/23 03:11:56;;;;;;;7.37;6.10;;;;;;;;;;5129677;27;24420;-62
2021/09/23 03:14:21;;;;;;;7.78;6.38;;;;;;;;;;5130308;27;25039;-62
2021/09/23 03:16:46;;;;;;;6.10;5.50;;;;;;;;;;5129602;27;24512;-61
2021/09/23 03:19:12;;;;;;;6.10;5.50;;;;;;;;;;5129744;27;24423;-60
2021/09/23 03:21:38;;;;;;;6.30;5.70;;;;;;;;;;5129750;27;24420;-60
2021/09/23 03:24:03;;;;;;;6.07;5.47;;;;;;;;;;5129875;27;24778;-60
2021/09/23 03:26:29;;;;;;;5.43;4.75;;;;;;;;;;5127517;27;24511;-59
2021/09/23 03:28:54;;;;;;;5.60;5.10;;;;;;;;;;5119599;27;25206;-59
2021/09/23 03:31:19;;;;;;;6.53;5.73;;;;;;;;;;5109457;28;24390;-60
2021/09/23 03:33:44;;;;;;;5.72;5.22;;;;;;;;;;5121740;27;24456;-60
2021/09/23 03:36:09;;;;;;;6.57;5.78;;;;;;;;;;5129393;27;24401;-60
2021/09/23 03:38:34;;;;;;;5.80;5.30;;;;;;;;;;5127793;27;24413;-59
2021/09/23 03:41:00;;;;;;;6.35;5.70;;;;;;;;;;5129276;27;24970;-59
2021/09/23 03:43:25;;;;;;;6.10;5.40;;;;;;;;;;5128376;27;24424;-60
2021/09/23 03:45:50;;;;;;;5.87;5.37;;;;;;;;;;5123567;27;24476;-59
2021/09/23 03:48:16;;;;;;;5.97;5.47;;;;;;;;;;5128603;27;24436;-59
2021/09/23 03:50:41;;;;;;;6.40;5.80;;;;;;;;;;5128144;27;24936;-59
2021/09/23 03:53:07;;;;;;;6.00;5.50;;;;;;;;;;5111770;27;24478;-60
2021/09/23 03:55:32;;;;;;;5.82;5.32;;;;;;;;;;5114365;27;24508;-60
2021/09/23 03:57:57;;;;;;;5.93;5.33;;;;;;;;;;5128353;27;24418;-60
2021/09/23 04:00:23;;;;;;;6.78;6.10;;;;;;;;;;5117851;27;24420;-60
2021/09/23 04:02:48;;;;;;;6.78;6.13;;;;;;;;;;5121802;27;24420;-60
2021/09/23 04:05:14;;;;;;;7.17;6.57;;;;;;;;;;5128863;27;24443;-60
2021/09/23 04:07:39;;;;;;;6.97;6.27;;;;;;;;;;5128672;27;24520;-60
2021/09/23 04:10:05;;;;;;;6.23;5.63;;;;;;;;;;5128025;27;24722;-60
2021/09/23 04:12:30;;;;;;;6.97;6.38;;;;;;;;;;5110831;27;24493;-59
2021/09/23 04:14:55;;;;;;;6.50;5.90;;;;;;;;;;5125417;27;24461;-59
2021/09/23 04:17:21;;;;;;;6.63;5.80;;;;;;;;;;5109711;27;24421;-60
2021/09/23 04:19:46;;;;;;;5.93;5.43;;;;;;;;;;5124346;27;24497;-59
2021/09/23 04:22:11;;;;;;;5.90;5.40;;;;;;;;;;5124834;27;24469;-59
2021/09/23 04:24:36;;;;;;;5.80;5.30;;;;;;;;;;5118137;27;24421;-59
2021/09/23 04:27:02;;;;;;;7.37;6.40;;;;;;;;;;5116761;27;24890;-60
2021/09/23 04:29:27;;;;;;;5.60;5.10;;;;;;;;;;5126821;27;24408;-59
2021/09/23 04:31:52;;;;;;;5.93;5.43;;;;;;;;;;5117664;27;24723;-60
2021/09/23 04:34:17;;;;;;;5.80;5.30;;;;;;;;;;5116855;27;24436;-60
2021/09/23 04:36:42;;;;;;;6.03;5.53;;;;;;;;;;5116359;27;24587;-60
2021/09/23 04:39:08;;;;;;;6.00;5.50;;;;;;;;;;5122937;27;24420;-59
2021/09/23 04:41:33;;;;;;;6.40;5.90;;;;;;;;;;5124694;27;24970;-60
2021/09/23 04:43:58;;;;;;;7.43;6.83;;;;;;;;;;5119623;27;24423;-59
2021/09/23 04:46:24;;;;;;;6.77;6.20;;;;;;;;;;5123508;27;24947;-59
2021/09/23 04:48:50;;;;;;;7.03;6.32;;;;;;;;;;5119652;27;24532;-59
2021/09/23 04:51:16;;;;;;;6.60;6.10;;;;;;;;;;5114128;27;24435;-59
2021/09/23 04:53:41;;;;;;;6.30;5.80;;;;;;;;;;5118958;27;24891;-59
2021/09/23 04:56:06;;;;;;;6.50;5.90;;;;;;;;;;5123478;27;24416;-59
2021/09/23 04:58:31;;;;;;;6.70;6.10;;;;;;;;;;5123384;27;24493;-59
2021/09/23 05:00:56;;;;;;;6.70;6.00;;;;;;;;;;5116202;27;24591;-60
2021/09/23 05:03:22;;;;;;;6.80;6.20;;;;;;;;;;5124333;27;24540;-60
2021/09/23 05:05:47;;;;;;;6.50;5.90;;;;;;;;;;5111863;27;24445;-59
2021/09/23 05:08:12;;;;;;;7.90;7.10;;;;;;;;;;5115236;27;24445;-60
2021/09/23 05:10:37;;;;;;;6.57;6.07;;;;;;;;;;5107215;27;24405;-59
2021/09/23 05:13:03;;;;;;;6.90;6.40;;;;;;;;;;5119422;27;24449;-59
2021/09/23 05:15:28;;;;;;;7.20;6.60;;;;;;;;;;5116377;27;24414;-60
2021/09/23 05:17:53;;;;;;;7.23;6.63;;;;;;;;;;5118604;27;24976;-60
2021/09/23 05:20:18;;;;;;;7.78;7.18;;;;;;;;;;5099317;28;24988;-59
2021/09/23 05:22:44;;;;;;;12.95;11.85;;;;;;;;;;5108095;27;24996;-60
2021/09/23 05:25:09;;;;;;;13.83;12.73;;;;;;;;;;5119446;27;24789;-59
2021/09/23 05:27:34;;;;;;;12.90;11.90;;;;;;;;;;5121988;27;24437;-60
2021/09/23 05:30:00;;;;;;;9.70;8.90;;;;;;;;;;5123454;27;24397;-59
2021/09/23 05:32:25;;;;;;;8.52;7.82;;;;;;;;;;5119297;27;24884;-60
2021/09/23 05:34:50;;;;;;;7.50;6.90;;;;;;;;;;5117438;27;24447;-60
2021/09/23 05:37:16;;;;;;;6.77;6.27;;;;;;;;;;5121394;27;24608;-60
2021/09/23 05:39:41;;;;;;;7.87;7.17;;;;;;;;;;5121814;27;24384;-60
2021/09/23 05:42:06;;;;;;;7.30;6.77;;;;;;;;;;5123101;27;24814;-60
2021/09/23 05:44:31;;;;;;;8.35;7.75;;;;;;;;;;5120556;27;24433;-60
2021/09/23 05:46:56;;;;;;;8.30;7.70;;;;;;;;;;5121209;27;25032;-60
2021/09/23 05:49:22;;;;;;;8.10;7.40;;;;;;;;;;5110367;27;24398;-60
2021/09/23 05:51:48;;;;;;;7.20;6.60;;;;;;;;;;5123728;27;24476;-59
2021/09/23 05:54:13;;;;;;;7.83;7.13;;;;;;;;;;5116078;27;24452;-59
2021/09/23 05:56:39;;;;;;;6.57;5.97;;;;;;;;;;5119675;27;25186;-60
2021/09/23 05:59:04;;;;;;;6.00;5.60;;;;;;;;;;5123848;27;24959;-60
2021/09/23 06:01:29;;;;;;;6.37;5.87;;;;;;;;;;5123105;27;25167;-60
2021/09/23 06:03:54;;;;;;;6.40;5.90;;;;;;;;;;5123643;28;24417;-61
2021/09/23 06:06:19;;;;;;;6.70;6.20;;;;;;;;;;5123389;28;24444;-60
2021/09/23 06:08:45;;;;;;;7.37;6.77;;;;;;;;;;5112669;27;25017;-60
2021/09/23 06:11:10;;;;;;;6.20;5.70;;;;;;;;;;5127845;27;24389;-60
2021/09/23 06:13:36;;;;;;;8.20;7.50;;;;;;;;;;5127221;27;24485;-60
2021/09/23 06:16:01;;;;;;;7.05;6.45;;;;;;;;;;5127589;27;24392;-60
2021/09/23 06:18:26;;;;;;;7.40;6.90;;;;;;;;;;5120429;27;24479;-60
2021/09/23 06:20:51;;;;;;;8.20;7.50;;;;;;;;;;5111195;27;24421;-60
2021/09/23 06:23:16;;;;;;;7.22;6.63;;;;;;;;;;5127379;27;24434;-60
2021/09/23 06:25:41;;;;;;;9.30;8.50;;;;;;;;;;5126437;27;24534;-60
2021/09/23 06:28:07;;;;;;;7.90;7.30;;;;;;;;;;5126725;27;24485;-60
2021/09/23 06:30:32;;;;;;;8.55;7.95;;;;;;;;;;5126820;27;24500;-61
2021/09/23 06:32:57;;;;;;;8.80;8.20;;;;;;;;;;5126916;27;24489;-60
2021/09/23 06:35:22;;;;;;;9.18;8.48;;;;;;;;;;5126697;27;24424;-61
2021/09/23 06:37:47;;;;;;;9.80;9.00;;;;;;;;;;5127327;27;24425;-60
2021/09/23 06:40:13;;;;;;;9.00;8.20;;;;;;;;;;5126739;27;24413;-60
2021/09/23 06:42:38;;;;;;;8.47;7.87;;;;;;;;;;5127027;27;24417;-60
2021/09/23 06:45:03;;;;;;;8.10;7.50;;;;;;;;;;5126947;27;25012;-60
2021/09/23 06:47:29;;;;;;;9.00;8.20;;;;;;;;;;5126138;27;24433;-60
2021/09/23 06:49:54;;;;;;;6.70;6.20;;;;;;;;;;5127004;27;24946;-60
2021/09/23 06:52:19;;;;;;;10.20;8.10;;;;;;;;;;5126198;27;24414;-60
2021/09/23 06:54:45;;;;;;;7.60;7.00;;;;;;;;;;5123757;27;24424;-60
2021/09/23 06:57:10;;;;;;;7.83;7.20;;;;;;;;;;5124729;27;24409;-60
2021/09/23 06:59:35;;;;;;;7.27;6.67;;;;;;;;;;5125062;27;24420;-61
2021/09/23 07:02:01;;;;;;;6.10;5.60;;;;;;;;;;5124745;27;24548;-61
2021/09/23 07:04:26;;;;;;;6.85;6.25;;;;;;;;;;5123882;27;24779;-61
2021/09/23 07:06:51;;;;;;;8.05;7.35;;;;;;;;;;5123440;27;24455;-61
2021/09/23 07:09:16;;;;;;;9.30;8.50;;;;;;;;;;5122557;27;24417;-60
2021/09/23 07:11:42;;;;;;;8.90;8.00;;;;;;;;;;5121962;27;24377;-60
2021/09/23 07:14:07;;;;;;;6.90;6.40;;;;;;;;;;5124111;27;24920;-60
2021/09/23 07:16:32;;;;;;;8.67;7.97;;;;;;;;;;5124460;27;24381;-60
2021/09/23 07:18:57;;;;;;;8.70;8.00;;;;;;;;;;5125159;27;24995;-60
2021/09/23 07:21:22;;;;;;;7.90;7.30;;;;;;;;;;5122118;27;24397;-61
2021/09/23 07:23:47;;;;;;;9.98;9.07;;;;;;;;;;5121755;27;24995;-60
2021/09/23 07:26:13;;;;;;;7.67;7.07;;;;;;;;;;5103566;27;24412;-60
2021/09/23 07:28:38;;;;;;;9.15;8.35;;;;;;;;;;5125360;27;24441;-60
2021/09/23 07:31:03;;;;;;;9.10;8.40;;;;;;;;;;5125581;27;24389;-60
2021/09/23 07:33:29;;;;;;;8.40;7.70;;;;;;;;;;5123493;27;24424;-63
2021/09/23 07:35:54;;;;;;;9.00;8.20;;;;;;;;;;5119608;27;24820;-60
2021/09/23 07:38:20;;;;;;;7.90;7.20;;;;;;;;;;5119875;27;24988;-60
2021/09/23 07:40:45;;;;;;;8.00;7.30;;;;;;;;;;5122792;27;24955;-60
2021/09/23 07:43:11;;;;;;;9.47;8.57;;;;;;;;;;5125217;27;24470;-61
2021/09/23 07:45:36;;;;;;;9.25;8.45;;;;;;;;;;5123845;27;24909;-60
2021/09/23 07:48:01;;;;;;;8.60;8.00;;;;;;;;;;5123393;27;25001;-60
2021/09/23 07:50:26;;;;;;;7.75;7.15;;;;;;;;;;5119357;27;24416;-60
2021/09/23 07:52:51;;;;;;;9.10;8.30;;;;;;;;;;5118945;27;24404;-60
2021/09/23 07:55:16;;;;;;;7.67;7.10;;;;;;;;;;5123354;27;25045;-60
2021/09/23 07:57:42;;;;;;;6.23;5.73;;;;;;;;;;5123505;27;24415;-60
2021/09/23 08:00:07;;;;;;;6.60;6.00;;;;;;;;;;5124238;27;24409;-60
2021/09/23 08:02:32;;;;;;;7.87;7.20;;;;;;;;;;5123035;27;24753;-60
2021/09/23 08:04:58;;;;;;;6.90;6.30;;;;;;;;;;5119478;27;24404;-61
2021/09/23 08:07:23;;;;;;;5.70;5.30;;;;;;;;;;5118952;27;24425;-61
2021/09/23 08:09:48;;;;;;;5.90;5.40;;;;;;;;;;5123315;27;24389;-60
2021/09/23 08:12:13;;;;;;;5.75;5.30;;;;;;;;;;5120714;27;24417;-60
2021/09/23 08:14:38;;;;;;;5.47;5.00;;;;;;;;;;5124837;27;24405;-61
2021/09/23 08:17:07;;;;;;;6.20;5.70;;;;;;;;;;5124842;27;24753;-60
2021/09/23 08:19:35;;;;;;;5.65;5.25;;;;;;;;;;5120892;27;24397;-60
2021/09/23 08:22:00;;;;;;;5.83;5.33;;;;;;;;;;5118619;27;24401;-61
2021/09/23 08:24:25;;;;;;;5.10;4.70;;;;;;;;;;5121081;27;24396;-61
2021/09/23 08:26:50;;;;;;;4.72;4.35;;;;;;;;;;5124696;27;24503;-60
2021/09/23 08:29:16;;;;;;;4.40;4.10;;;;;;;;;;5124733;27;24936;-61
2021/09/23 08:31:41;;;;;;;5.13;4.73;;;;;;;;;;5121380;27;24424;-61
2021/09/23 08:34:06;;;;;;;4.43;4.13;;;;;;;;;;5120476;27;25113;-61
2021/09/23 08:36:33;;;;;;;3.70;3.40;;;;;;;;;;5118677;27;24984;-60
2021/09/23 08:38:58;;;;;;;3.55;3.35;;;;;;;;;;5122386;27;24595;-61
2021/09/23 08:41:23;;;;;;;4.13;3.83;;;;;;;;;;5122414;27;24480;-61
2021/09/23 08:43:48;;;;;;;3.58;3.28;;;;;;;;;;5123960;27;24431;-61
2021/09/23 08:46:13;;;;;;;3.23;2.93;;;;;;;;;;5122185;27;24424;-61
2021/09/23 08:48:38;;;;;;;5.60;3.20;;;;;;;;;;5118290;27;25019;-61
2021/09/23 08:51:04;;;;;;;3.65;3.35;;;;;;;;;;5118751;27;24765;-61
2021/09/23 08:53:30;;;;;;;2.90;2.70;;;;;;;;;;5121881;27;25050;-61
2021/09/23 08:55:55;;;;;;;2.60;2.50;;;;;;;;;;5124228;27;24397;-61
2021/09/23 08:58:20;;;;;;;3.20;2.90;;;;;;;;;;5122070;27;24433;-60
2021/09/23 09:01:04;;;;;;;3.30;3.00;;;;;;;;;;5122448;27;24381;-61
2021/09/23 09:03:33;;;;;;;3.50;3.20;;;;;;;;;;5117707;27;24979;-61
2021/09/23 09:05:58;;;;;;;3.10;2.80;;;;;;;;;;5119555;27;25015;-60
2021/09/23 09:08:28;;;;;;;2.60;2.40;;;;;;;;;;5120555;27;24453;-61
2021/09/23 09:10:53;;;;;;;2.70;2.50;;;;;;;;;;5124236;27;24488;-61
2021/09/23 09:13:18;;;;;;;2.93;2.73;;;;;;;;;;5123297;27;24534;-60
2021/09/23 09:15:47;;;;;;;3.30;3.00;;;;;;;;;;5119834;27;24992;-62
2021/09/23 09:18:16;;;;;;;3.00;2.80;;;;;;;;;;5119986;27;24400;-61
2021/09/23 09:21:00;;;;;;;2.50;2.30;;;;;;;;;;5119996;27;24414;-61
2021/09/23 09:23:45;;;;;;;2.90;2.60;;;;;;;;;;5119736;27;24432;-61
2021/09/23 09:26:15;;;;;;;2.70;2.50;;;;;;;;;;5107804;27;24461;-61
2021/09/23 09:28:47;;;;;;;2.70;2.50;;;;;;;;;;5121341;27;24421;-61
2021/09/23 09:31:12;;;;;;;3.20;3.00;;;;;;;;;;5121784;27;24390;-61
2021/09/23 09:33:38;;;;;;;2.90;2.70;;;;;;;;;;5117481;27;24420;-61
2021/09/23 09:36:04;;;;;;;2.92;2.72;;;;;;;;;;5117675;27;24507;-61
2021/09/23 09:38:29;;;;;;;3.70;3.40;;;;;;;;;;5119800;27;24488;-61
2021/09/23 09:40:55;;;;;;;3.30;3.10;;;;;;;;;;5123426;27;24928;-61
2021/09/23 09:43:20;;;;;;;4.30;3.22;;;;;;;;;;5121138;27;24570;-61
2021/09/23 09:45:47;;;;;;;3.10;2.90;;;;;;;;;;5121555;27;24443;-60
2021/09/23 09:48:12;;;;;;;3.80;3.50;;;;;;;;;;5119387;27;24516;-60
2021/09/23 09:50:38;;;;;;;3.20;3.00;;;;;;;;;;5118036;27;24982;-61
2021/09/23 09:53:08;;;;;;;3.03;2.83;;;;;;;;;;5119128;27;24433;-60
2021/09/23 09:55:39;;;;;;;3.80;3.50;;;;;;;;;;5122845;27;24427;-61
2021/09/23 09:58:05;;;;;;;3.72;3.40;;;;;;;;;;5102441;28;24394;-61
2021/09/23 10:00:31;;;;;;;3.00;2.80;;;;;;;;;;5100531;28;24409;-61
2021/09/23 10:02:56;;;;;;;3.33;3.10;;;;;;;;;;5096982;28;24512;-61
2021/09/23 10:05:22;;;;;;;4.10;3.70;;;;;;;;;;5096905;28;24698;-60
2021/09/23 10:07:49;;;;;;;3.20;3.00;;;;;;;;;;5114941;28;25006;-60
2021/09/23 10:10:15;;;;;;;3.75;3.45;;;;;;;;;;5122699;28;24861;-61
2021/09/23 10:12:41;;;;;;;3.83;3.20;;;;;;;;;;5120825;28;24401;-61
2021/09/23 10:15:07;;;;;;;3.30;3.00;;;;;;;;;;5121174;28;24759;-60
2021/09/23 10:17:33;;;;;;;2.92;2.72;;;;;;;;;;5116855;28;24954;-61
2021/09/23 10:20:00;;;;;;;3.08;2.88;;;;;;;;;;5100333;28;24940;-61
2021/09/23 10:22:25;;;;;;;3.50;3.20;;;;;;;;;;5118554;28;24784;-61
2021/09/23 10:24:51;;;;;;;3.40;3.10;;;;;;;;;;5122661;28;24520;-61
2021/09/23 10:30:01;;;;;;;3.77;3.47;;;;;;;;;;5122228;28;25025;-61
2021/09/23 10:32:26;;;;;;;3.10;2.90;;;;;;;;;;5116723;28;24703;-61
2021/09/23 10:34:52;;;;;;;3.30;3.10;;;;;;;;;;5117277;28;24460;-61
2021/09/23 10:37:18;;;;;;;2.90;2.70;;;;;;;;;;5120798;28;24944;-60
2021/09/23 10:39:44;;;;;;;3.50;3.20;;;;;;;;;;5121062;28;24468;-61
2021/09/23 10:42:11;;;;;;;3.30;3.00;;;;;;;;;;5122203;28;25076;-61
2021/09/23 10:44:40;;;;;;;3.35;3.05;;;;;;;;;;5120502;28;24393;-61
2021/09/23 10:47:06;;;;;;;3.40;3.13;;;;;;;;;;5118865;28;24994;-61
2021/09/23 10:49:32;;;;;;;3.30;3.10;;;;;;;;;;5116952;28;24932;-61
2021/09/23 10:51:58;;;;;;;3.00;2.80;;;;;;;;;;5119946;28;24427;-61
2021/09/23 10:54:24;;;;;;;3.40;3.10;;;;;;;;;;5117798;27;25013;-61
2021/09/23 10:56:50;;;;;;;3.65;3.25;;;;;;;;;;5126700;27;24482;-61
2021/09/23 10:59:16;;;;;;;3.70;3.40;;;;;;;;;;5125917;27;24475;-61
2021/09/23 11:01:43;;;;;;;3.20;2.90;;;;;;;;;;5120794;27;24397;-61
2021/09/23 11:04:09;;;;;;;3.33;3.03;;;;;;;;;;5119882;27;24549;-62
2021/09/23 11:06:39;;;;;;;2.60;2.50;;;;;;;;;;5122344;27;24382;-61
2021/09/23 11:09:18;;;;;;;3.40;3.10;;;;;;;;;;5124412;27;24520;-60
2021/09/23 11:11:50;;;;;;;3.40;3.20;;;;;;;;;;5124469;27;24928;-61
2021/09/23 11:14:16;;;;;;;3.50;3.20;;;;;;;;;;5125284;27;24432;-61
2021/09/23 11:16:44;;;;;;;3.40;3.10;;;;;;;;;;5120271;27;25186;-62
2021/09/23 11:19:09;;;;;;;3.20;3.00;;;;;;;;;;5120255;27;25221;-61
2021/09/23 11:21:36;;;;;;;3.50;3.20;;;;;;;;;;5122654;27;24420;-61
2021/09/23 11:24:02;;;;;;;3.70;3.40;;;;;;;;;;5123542;27;24465;-61
2021/09/23 11:26:27;;;;;;;3.65;3.35;;;;;;;;;;5123662;27;24706;-60
2021/09/23 11:28:54;;;;;;;3.77;3.47;;;;;;;;;;5123495;27;24588;-60
2021/09/23 11:31:19;;;;;;;3.22;3.00;;;;;;;;;;5121617;27;24501;-60
2021/09/23 11:33:49;;;;;;;2.88;2.67;;;;;;;;;;5119388;27;24833;-63
2021/09/23 11:36:15;;;;;;;3.65;3.35;;;;;;;;;;5121986;27;24438;-60
2021/09/23 11:38:40;;;;;;;3.05;2.85;;;;;;;;;;5125831;27;24753;-63
2021/09/23 11:41:05;;;;;;;3.17;2.97;;;;;;;;;;5125632;27;24416;-60
2021/09/23 11:43:30;;;;;;;3.43;3.13;;;;;;;;;;5123401;27;24395;-60
2021/09/23 11:45:55;;;;;;;3.30;3.00;;;;;;;;;;5121275;27;24756;-61
2021/09/23 11:48:27;;;;;;;2.93;2.73;;;;;;;;;;5121320;27;24442;-61
2021/09/23 11:50:55;;;;;;;3.10;2.90;;;;;;;;;;5121629;27;24454;-60
2021/09/23 11:53:20;;;;;;;3.50;3.30;;;;;;;;;;5121170;27;24881;-60
2021/09/23 11:55:57;;;;;;;4.20;3.90;;;;;;;;;;5124754;27;24876;-60
2021/09/23 11:58:22;;;;;;;3.67;3.38;;;;;;;;;;5122895;27;24397;-61
2021/09/23 12:00:48;;;;;;;3.90;3.60;;;;;;;;;;5125111;27;24967;-60
2021/09/23 12:03:15;;;;;;;4.22;3.80;;;;;;;;;;5121250;27;24882;-61
2021/09/23 12:05:40;;;;;;;4.20;3.90;;;;;;;;;;5118074;27;24421;-60
2021/09/23 12:08:06;;;;;;;4.45;3.50;;;;;;;;;;5118715;27;24417;-61
2021/09/23 12:10:31;;;;;;;4.00;3.70;;;;;;;;;;5124545;27;24566;-60
2021/09/23 12:12:57;;;;;;;4.13;3.60;;;;;;;;;;5121645;27;24420;-61
2021/09/23 12:15:23;;;;;;;3.70;3.35;;;;;;;;;;5122332;27;24509;-61
2021/09/23 12:17:52;;;;;;;3.83;3.53;;;;;;;;;;5121136;27;24431;-61
2021/09/23 12:20:17;;;;;;;3.97;3.67;;;;;;;;;;5120557;27;24944;-61
2021/09/23 12:22:42;;;;;;;3.53;3.22;;;;;;;;;;5118972;27;24477;-61
2021/09/23 12:25:11;;;;;;;4.00;3.70;;;;;;;;;;5122614;27;24767;-60
2021/09/23 12:27:37;;;;;;;3.50;3.30;;;;;;;;;;5124771;27;24420;-60
2021/09/23 12:30:03;;;;;;;3.70;3.50;;;;;;;;;;5123986;27;24699;-61
2021/09/23 12:32:29;;;;;;;4.00;3.70;;;;;;;;;;5121998;27;24975;-61
2021/09/23 12:34:54;;;;;;;3.80;3.50;;;;;;;;;;5119007;27;24546;-61
2021/09/23 12:37:23;;;;;;;4.20;3.80;;;;;;;;;;5119586;27;24500;-61
2021/09/23 12:39:49;;;;;;;3.90;3.60;;;;;;;;;;5124650;27;24392;-60
2021/09/23 12:42:21;;;;;;;4.07;3.70;;;;;;;;;;5123905;27;24753;-60
2021/09/23 12:44:59;;;;;;;4.50;4.00;;;;;;;;;;5124140;27;24718;-60
2021/09/23 12:47:27;;;;;;;3.90;3.60;;;;;;;;;;5119643;27;24452;-60
2021/09/23 12:49:52;;;;;;;4.20;3.85;;;;;;;;;;5118503;27;24941;-61
2021/09/23 12:52:18;;;;;;;4.15;3.75;;;;;;;;;;5119752;27;24417;-61
2021/09/23 12:55:00;;;;;;;4.10;3.70;;;;;;;;;;5121585;27;24481;-60
2021/09/23 12:57:26;;;;;;;3.90;3.60;;;;;;;;;;5121924;27;24427;-61
2021/09/23 13:00:12;;;;;;;4.20;3.80;;;;;;;;;;5123828;27;24388;-60
2021/09/23 13:02:38;;;;;;;4.20;3.80;;;;;;;;;;5117038;27;24417;-60
2021/09/23 13:05:12;;;;;;;4.07;3.78;;;;;;;;;;5118064;27;24424;-61
2021/09/23 13:07:41;;;;;;;3.63;3.33;;;;;;;;;;5120312;27;24428;-61
2021/09/23 13:10:11;;;;;;;3.88;3.58;;;;;;;;;;5105100;27;24450;-61
2021/09/23 13:12:38;;;;;;;4.25;3.95;;;;;;;;;;5121380;27;24515;-62
2021/09/23 13:15:16;;;;;;;4.17;3.87;;;;;;;;;;5121890;27;24788;-60
2021/09/23 13:17:41;;;;;;;4.40;4.10;;;;;;;;;;5117635;27;24404;-60
2021/09/23 13:20:07;;;;;;;4.00;3.70;;;;;;;;;;5117550;27;24413;-60
2021/09/23 13:22:32;;;;;;;4.50;4.10;;;;;;;;;;5119145;27;24971;-60
2021/09/23 13:24:57;;;;;;;4.30;3.90;;;;;;;;;;5123348;27;24538;-60
2021/09/23 13:27:23;;;;;;;4.40;4.00;;;;;;;;;;5122439;27;24441;-61
2021/09/23 13:29:48;;;;;;;4.00;3.70;;;;;;;;;;5121768;27;24412;-60
2021/09/23 13:32:14;;;;;;;3.90;3.50;;;;;;;;;;5123163;27;24400;-61
2021/09/23 13:34:39;;;;;;;4.15;3.75;;;;;;;;;;5116700;27;24770;-61
2021/09/23 13:37:04;;;;;;;3.78;3.47;;;;;;;;;;5117950;27;24971;-61
2021/09/23 13:39:29;;;;;;;3.67;3.38;;;;;;;;;;5117010;27;24413;-60
2021/09/23 13:41:54;;;;;;;4.07;3.60;;;;;;;;;;5123198;27;24425;-60
2021/09/23 13:44:20;;;;;;;3.58;3.33;;;;;;;;;;5121814;27;24429;-60
2021/09/23 13:46:45;;;;;;;3.80;3.50;;;;;;;;;;5121154;27;25032;-60
2021/09/23 13:49:10;;;;;;;4.87;3.30;;;;;;;;;;5116975;27;24468;-59
2021/09/23 13:51:35;;;;;;;3.77;3.47;;;;;;;;;;5117926;27;24412;-60
2021/09/23 13:54:02;;;;;;;4.20;3.53;;;;;;;;;;5122409;27;24769;-62
2021/09/23 13:56:27;;;;;;;4.00;3.70;;;;;;;;;;5119306;27;24416;-61
2021/09/23 13:58:52;;;;;;;4.25;3.92;;;;;;;;;;5121064;27;24405;-62
2021/09/23 14:01:17;;;;;;;3.83;3.53;;;;;;;;;;5115394;27;24443;-62
2021/09/23 14:03:42;;;;;;;4.30;4.00;;;;;;;;;;5114299;27;24416;-61
2021/09/23 14:06:08;;;;;;;4.20;3.90;;;;;;;;;;5114647;27;24490;-62
2021/09/23 14:08:33;;;;;;;3.67;3.37;;;;;;;;;;5119363;28;24882;-59
2021/09/23 14:10:58;;;;;;;4.10;3.70;;;;;;;;;;5106173;28;25032;-60
2021/09/23 14:13:23;;;;;;;4.07;3.60;;;;;;;;;;5097093;28;24389;-60
2021/09/23 14:15:49;;;;;;;3.77;3.47;;;;;;;;;;5115563;28;24416;-60
2021/09/23 14:18:14;;;;;;;3.90;3.60;;;;;;;;;;5115882;28;24416;-60
2021/09/23 14:20:40;;;;;;;4.03;3.73;;;;;;;;;;5115427;27;24410;-60
2021/09/23 14:23:05;;;;;;;4.07;3.78;;;;;;;;;;5119820;27;24413;-60
2021/09/23 14:25:30;;;;;;;4.47;4.07;;;;;;;;;;5114274;28;24698;-60
2021/09/23 14:27:56;;;;;;;4.10;3.80;;;;;;;;;;5116371;28;24540;-60
2021/09/23 14:30:21;;;;;;;5.22;3.78;;;;;;;;;;5118306;27;24393;-61
2021/09/23 14:32:46;;;;;;;3.90;3.60;;;;;;;;;;5123994;27;24524;-60
2021/09/23 14:35:11;;;;;;;3.80;3.50;;;;;;;;;;5120293;27;24967;-60
2021/09/23 14:37:37;;;;;;;4.22;3.83;;;;;;;;;;5107063;27;24552;-60
2021/09/23 14:40:03;;;;;;;3.80;3.50;;;;;;;;;;5119156;27;24508;-60